Terminal Aerodrome Forecast
Issued by NWS Sioux Falls, SD

Home | Current Version | Previous Version | Text Only | Print | Product List | Glossary On
Versions: 1 2 3 4 5 6 7 8 9 10 11 12 13 14 15 16 17
000
FTUS43 KFSD 302320
TAFFSD
TAF
KFSD 302320Z 3100/3124 17011KT P6SM SCT050
     FM310300 16011KT P6SM SHRA VCTS SCT050 OVC090CB
      TEMPO 3104/3106 VRB25G40KT 6SM TSRA BKN050CB
     FM310700 22009KT P6SM BKN060
     FM311000 26008KT P6SM BKN080
     FM311300 28011KT P6SM SCT100=

USA.gov is the U.S. government's official web portal to all federal, state and local government web resources and services.